Hlavní strana
METAR-TAF:

METAR-TAF

Letiště :

Michael J. Smith Field

Beaufort, Severní Karolína, Spojené státy americké

zeměpisná šířka: 34-44-01N, zeměpisná délka: 076-39-38W, výška: 3 m

Aktuální stav počasí

Zpráva byla vytvořena před 1 hodinou a 9 minutami, v 21:58 UTC
Jihojihozápadní vítr 10 kt
Teplota 21°C
Vlhkost vzduchu 78%
Tlak 1012 hPa
Viditelnost: 16.1 km
Jasno

METAR: KMRH 072158Z AUTO 20010KT 10SM CLR 21/17 A2987 RMK AO2 SLP115 T02060172

Čas: 19:07 (23:07 UTC)


TAF: chybějící

Stav a předpovědi počasí z více než 4 000 letišť (zprávy METAR a TAF).

Červené a žluté tečky na mapě představují dostupné meteorologické stanice.

Když kurzor umístíte na tečku, zobrazí se název stanice.

Pak kliknutím zobrazíte stav a předpověď počasí.

Chcete-li změnit mapu, kliknutím na zelené tlačítko se znaménkem +mapu přiblížíte, kliknutím na zelené tlačítko se znaménkem – mapu oddálíte a kliknutím na zelené šipky přejdete na sousední mapy.


METAR-TAF: